createdAt,value
2022-09-03T00:00:03.290Z,49.7
2022-09-03T00:01:05.029Z,49.77
2022-09-03T00:02:06.893Z,49.69
2022-09-03T00:03:08.601Z,49.7
2022-09-03T00:04:10.222Z,49.73
2022-09-03T00:05:11.964Z,49.95
2022-09-03T00:06:13.709Z,50.11
2022-09-03T00:07:15.429Z,49.89
2022-09-03T00:08:17.180Z,49.89
2022-09-03T00:09:18.905Z,50.01
2022-09-03T00:10:20.644Z,50.11
2022-09-03T00:11:22.414Z,50.11
2022-09-03T00:12:24.119Z,49.92
2022-09-03T00:13:25.856Z,50.2
2022-09-03T00:14:27.567Z,50.27
2022-09-03T00:15:29.308Z,50.38
2022-09-03T00:16:31.044Z,50.23
2022-09-03T00:17:32.788Z,50.24
2022-09-03T00:18:34.508Z,50.19
2022-09-03T00:19:36.245Z,50.23
2022-09-03T00:20:37.985Z,50.6
2022-09-03T00:21:39.715Z,50.58
2022-09-03T00:22:41.452Z,50.49
2022-09-03T00:23:43.186Z,50.88
2022-09-03T00:24:44.921Z,50.66
2022-09-03T00:25:46.668Z,50.6
2022-09-03T00:26:48.418Z,51.05
2022-09-03T00:27:50.122Z,50.9
2022-09-03T00:28:51.866Z,50.86
2022-09-03T00:29:53.588Z,50.95
2022-09-03T00:30:55.362Z,50.79
2022-09-03T00:31:57.058Z,50.87
2022-09-03T00:32:58.804Z,51.11
2022-09-03T00:34:00.534Z,51.06
2022-09-03T00:35:02.279Z,51.13
2022-09-03T00:36:13.956Z,51.11
2022-09-03T00:37:05.742Z,51.31
2022-09-03T00:38:07.470Z,51.44
2022-09-03T00:39:09.200Z,51.17
2022-09-03T00:40:10.952Z,51.28
2022-09-03T00:41:12.674Z,51.24
2022-09-03T00:42:14.418Z,51.5
2022-09-03T00:43:16.139Z,51.31
2022-09-03T00:44:17.867Z,51.65
2022-09-03T00:45:19.603Z,51.5
2022-09-03T00:46:21.412Z,51.82
2022-09-03T00:47:23.082Z,51.76
2022-09-03T00:48:28.268Z,52.08
2022-09-03T00:49:26.550Z,51.75
2022-09-03T00:50:28.279Z,51.78
2022-09-03T00:51:30.013Z,52.21
2022-09-03T00:52:33.650Z,52.07
2022-09-03T00:53:33.479Z,52.26
2022-09-03T00:54:35.205Z,52.08
2022-09-03T00:55:36.947Z,52.49
2022-09-03T00:56:38.685Z,52.15
2022-09-03T00:57:40.417Z,52.34
2022-09-03T00:58:42.165Z,52.16
2022-09-03T00:59:43.883Z,52.08
2022-09-03T01:00:45.634Z,52.01
2022-09-03T01:01:47.486Z,52.25
2022-09-03T01:02:49.206Z,52.46
2022-09-03T01:03:50.834Z,52.4
2022-09-03T01:04:52.564Z,52.64
2022-09-03T01:05:57.430Z,53.1
2022-09-03T01:06:56.024Z,52.87
2022-09-03T01:07:57.757Z,52.69
2022-09-03T01:08:59.489Z,52.54
2022-09-03T01:10:01.240Z,53.03
2022-09-03T01:11:06.006Z,52.69
2022-09-03T01:12:04.700Z,53.21
2022-09-03T01:13:06.448Z,52.97
2022-09-03T01:14:08.175Z,52.84
2022-09-03T01:15:09.916Z,53.02
2022-09-03T01:16:11.710Z,53.02
2022-09-03T01:17:13.380Z,53.6
2022-09-03T01:18:15.168Z,53
2022-09-03T01:19:16.846Z,53.28
2022-09-03T01:20:18.585Z,53.19
2022-09-03T01:21:20.315Z,53.21
2022-09-03T01:22:22.074Z,53.36
2022-09-03T01:23:23.777Z,53.61
2022-09-03T01:24:25.514Z,53.33
2022-09-03T01:25:27.264Z,53.47
2022-09-03T01:26:28.999Z,53.59
2022-09-03T01:27:30.723Z,53.62
2022-09-03T01:28:32.471Z,53.42
2022-09-03T01:29:34.153Z,53.67
2022-09-03T01:30:35.890Z,53.91
2022-09-03T01:31:37.619Z,53.82
2022-09-03T01:32:39.339Z,53.57
2022-09-03T01:33:41.072Z,53.8
2022-09-03T01:34:42.822Z,53.58
2022-09-03T01:35:44.539Z,53.56
2022-09-03T01:36:46.267Z,53.86
2022-09-03T01:37:48.003Z,53.85
2022-09-03T01:38:49.750Z,53.9
2022-09-03T01:39:51.620Z,53.89
2022-09-03T01:40:53.208Z,53.81
2022-09-03T01:41:54.948Z,53.94
2022-09-03T01:42:56.670Z,53.89
2022-09-03T01:43:58.433Z,53.89
2022-09-03T01:45:00.135Z,53.79
2022-09-03T01:46:01.930Z,53.84
2022-09-03T01:47:03.619Z,53.92
2022-09-03T01:48:05.343Z,53.96
2022-09-03T01:49:07.090Z,53.8
2022-09-03T01:50:08.817Z,53.79
2022-09-03T01:51:10.557Z,54.07
2022-09-03T01:52:12.285Z,53.8
2022-09-03T01:53:14.018Z,54
2022-09-03T01:54:21.347Z,53.87
2022-09-03T01:55:17.507Z,54.07
2022-09-03T01:56:19.231Z,53.85
2022-09-03T01:57:24.268Z,53.95
2022-09-03T01:58:22.741Z,53.93
2022-09-03T01:59:24.432Z,53.83
2022-09-03T02:00:26.185Z,53.92
2022-09-03T02:01:27.962Z,54
2022-09-03T02:02:29.727Z,53.94
2022-09-03T02:03:31.387Z,54.01
2022-09-03T02:04:33.116Z,54.02
2022-09-03T02:05:34.844Z,54.11
2022-09-03T02:06:36.565Z,53.89
2022-09-03T02:07:38.300Z,54.05
2022-09-03T02:08:40.041Z,54.22
2022-09-03T02:09:41.764Z,54.07
2022-09-03T02:10:43.519Z,54.24
2022-09-03T02:11:45.250Z,54.24
2022-09-03T02:12:46.982Z,54.01
2022-09-03T02:13:48.705Z,54.06
2022-09-03T02:14:50.437Z,54.18
2022-09-03T02:15:52.305Z,54.08
2022-09-03T02:16:53.899Z,54.14
2022-09-03T02:17:55.638Z,54.34
2022-09-03T02:18:57.381Z,54.53
2022-09-03T02:19:59.095Z,54.49
2022-09-03T02:21:00.855Z,54.27
2022-09-03T02:22:02.562Z,54.45
2022-09-03T02:23:04.304Z,54.44
2022-09-03T02:24:06.037Z,54.41
2022-09-03T02:25:07.770Z,54.56
2022-09-03T02:26:09.518Z,54.64
2022-09-03T02:27:11.241Z,54.37
2022-09-03T02:28:17.284Z,54.65
2022-09-03T02:29:14.716Z,54.47
2022-09-03T02:30:16.466Z,54.61
2022-09-03T02:31:18.308Z,54.81
2022-09-03T02:32:19.919Z,54.59
2022-09-03T02:33:21.684Z,54.58
2022-09-03T02:34:23.422Z,54.77
2022-09-03T02:35:25.161Z,54.67
2022-09-03T02:36:27.698Z,54.75
2022-09-03T02:37:28.637Z,54.55
2022-09-03T02:38:30.326Z,54.83
2022-09-03T02:39:34.156Z,54.67
2022-09-03T02:40:33.833Z,54.89
2022-09-03T02:41:35.544Z,55.13
2022-09-03T02:42:37.280Z,55.14
2022-09-03T02:43:39.012Z,54.71
2022-09-03T02:44:40.750Z,54.79
2022-09-03T02:45:42.545Z,54.9
2022-09-03T02:46:44.229Z,55.51
2022-09-03T02:47:45.964Z,55.28
2022-09-03T02:48:47.669Z,55.37
2022-09-03T02:49:49.470Z,55.05
2022-09-03T02:50:51.144Z,55.36
2022-09-03T02:51:52.883Z,55.13
2022-09-03T02:52:54.620Z,55.43
2022-09-03T02:53:56.347Z,55.55
2022-09-03T02:54:58.085Z,55.2
2022-09-03T02:55:59.828Z,55.6
2022-09-03T02:57:01.545Z,55.46
2022-09-03T02:58:03.276Z,55.46
2022-09-03T02:59:05.019Z,55.45
2022-09-03T03:00:06.746Z,55.94
2022-09-03T03:01:08.545Z,55.8
2022-09-03T03:02:10.245Z,55.62
2022-09-03T03:03:11.946Z,55.85
2022-09-03T03:04:13.689Z,55.93
2022-09-03T03:05:15.424Z,55.76
2022-09-03T03:06:17.136Z,55.89
2022-09-03T03:07:18.883Z,55.77
2022-09-03T03:08:20.607Z,55.85
2022-09-03T03:09:22.363Z,55.91
2022-09-03T03:10:24.088Z,55.8
2022-09-03T03:11:25.823Z,56.02
2022-09-03T03:12:27.553Z,56.21
2022-09-03T03:13:29.286Z,56.34
2022-09-03T03:14:31.027Z,56.46
2022-09-03T03:15:32.774Z,56.18
2022-09-03T03:16:34.535Z,56.23
2022-09-03T03:17:36.221Z,56.25
2022-09-03T03:18:37.959Z,56.31
2022-09-03T03:19:39.690Z,56.32
2022-09-03T03:20:41.427Z,56.37
2022-09-03T03:21:43.159Z,56.24
2022-09-03T03:22:44.904Z,56.82
2022-09-03T03:23:46.629Z,56.5
2022-09-03T03:24:48.369Z,56.34
2022-09-03T03:25:50.115Z,56.34
2022-09-03T03:26:51.829Z,56.42
2022-09-03T03:27:53.559Z,56.49
2022-09-03T03:28:55.302Z,56.56
2022-09-03T03:29:57.043Z,56.42
2022-09-03T03:30:58.930Z,56.72
2022-09-03T03:32:00.503Z,56.67
2022-09-03T03:33:02.232Z,56.73
2022-09-03T03:34:03.962Z,56.76
2022-09-03T03:35:05.704Z,56.48
2022-09-03T03:36:07.452Z,57.04
2022-09-03T03:37:09.181Z,57.02
2022-09-03T03:38:10.904Z,56.92
2022-09-03T03:39:12.646Z,56.71
2022-09-03T03:40:14.375Z,57
2022-09-03T03:41:16.093Z,56.8
2022-09-03T03:42:17.845Z,56.77
2022-09-03T03:43:19.572Z,57.18
2022-09-03T03:44:21.317Z,56.88
2022-09-03T03:45:23.046Z,57.38
2022-09-03T03:46:24.905Z,57.08
2022-09-03T03:47:26.499Z,56.98
2022-09-03T03:48:28.277Z,56.99
2022-09-03T03:49:29.987Z,57.52
2022-09-03T03:50:31.716Z,57.21
2022-09-03T03:51:33.444Z,57.41
2022-09-03T03:52:35.203Z,57.47
2022-09-03T03:53:36.919Z,57.4
2022-09-03T03:54:38.654Z,57.74
2022-09-03T03:55:40.394Z,57.54
2022-09-03T03:56:42.119Z,58.18
2022-09-03T03:57:43.884Z,57.62
2022-09-03T03:58:45.605Z,57.59
2022-09-03T03:59:47.327Z,57.72
2022-09-03T04:00:49.144Z,57.92
2022-09-03T04:01:50.805Z,58.34
2022-09-03T04:02:52.603Z,57.97
2022-09-03T04:03:54.267Z,58.08
2022-09-03T04:04:56.013Z,58.07
2022-09-03T04:05:57.724Z,58.35
2022-09-03T04:06:59.463Z,58.97
2022-09-03T04:08:01.197Z,58.64
2022-09-03T04:09:02.926Z,58.88
2022-09-03T04:10:04.678Z,58.93
2022-09-03T04:11:06.421Z,59.11
2022-09-03T04:12:08.143Z,58.7
2022-09-03T04:13:09.875Z,58.75
2022-09-03T04:14:11.607Z,58.94
2022-09-03T04:15:13.339Z,58.73
2022-09-03T04:16:15.161Z,59.09
2022-09-03T04:17:16.813Z,59.11
2022-09-03T04:18:18.544Z,59.03
2022-09-03T04:19:20.280Z,59.25
2022-09-03T04:20:22.021Z,58.84
2022-09-03T04:21:23.738Z,59.32
2022-09-03T04:22:25.480Z,59.34
2022-09-03T04:23:27.219Z,59.47
2022-09-03T04:24:28.952Z,59.85
2022-09-03T04:25:30.715Z,59.94
2022-09-03T04:26:32.455Z,59.7
2022-09-03T04:27:34.146Z,59.57
2022-09-03T04:28:35.899Z,59.51
2022-09-03T04:29:37.625Z,59.69
2022-09-03T04:30:39.380Z,59.67
2022-09-03T04:31:41.096Z,60.38
2022-09-03T04:32:42.837Z,59.74
2022-09-03T04:33:44.570Z,59.91
2022-09-03T04:34:46.290Z,59.83
2022-09-03T04:35:48.032Z,59.73
2022-09-03T04:36:52.848Z,60.07
2022-09-03T04:37:51.500Z,59.87
2022-09-03T04:38:53.246Z,60.18
2022-09-03T04:39:55.076Z,60.15
2022-09-03T04:40:56.717Z,60.11
2022-09-03T04:42:00.101Z,60.07
2022-09-03T04:43:00.183Z,60.14
2022-09-03T04:44:01.903Z,60.64
2022-09-03T04:45:03.630Z,60.49
2022-09-03T04:46:17.672Z,60.35
2022-09-03T04:47:07.102Z,60.18
2022-09-03T04:48:08.843Z,60.34
2022-09-03T04:49:10.573Z,60.25
2022-09-03T04:50:12.316Z,60.12
2022-09-03T04:51:14.064Z,60.19
2022-09-03T04:52:15.768Z,60.52
2022-09-03T04:53:17.516Z,60.3
2022-09-03T04:54:19.250Z,60.67
2022-09-03T04:55:20.985Z,60.37
2022-09-03T04:56:22.712Z,60.55
2022-09-03T04:57:24.448Z,60.56
2022-09-03T04:58:26.194Z,60.77
2022-09-03T04:59:27.965Z,60.62
2022-09-03T05:00:29.647Z,60.64
2022-09-03T05:01:31.468Z,60.86
2022-09-03T05:02:33.202Z,60.56
2022-09-03T05:03:34.867Z,60.73
2022-09-03T05:04:36.584Z,60.71
2022-09-03T05:05:38.324Z,60.78
2022-09-03T05:06:40.047Z,60.67
2022-09-03T05:07:41.786Z,60.76
2022-09-03T05:08:43.513Z,60.53
2022-09-03T05:09:45.256Z,61.1
2022-09-03T05:10:47.011Z,60.74
2022-09-03T05:11:48.720Z,60.66
2022-09-03T05:12:50.448Z,60.86
2022-09-03T05:13:52.210Z,60.81
2022-09-03T05:14:53.906Z,60.91
2022-09-03T05:15:55.667Z,60.76
2022-09-03T05:16:57.422Z,60.81
2022-09-03T05:17:59.195Z,60.78
2022-09-03T05:19:00.870Z,61.19
2022-09-03T05:20:02.595Z,60.99
2022-09-03T05:21:07.383Z,60.92
2022-09-03T05:22:06.072Z,61.13
2022-09-03T05:23:07.805Z,61.08
2022-09-03T05:24:09.545Z,61.09
2022-09-03T05:25:11.270Z,61.62
2022-09-03T05:26:13.012Z,62.01
2022-09-03T05:27:14.740Z,63.2
2022-09-03T05:28:16.472Z,63.2
2022-09-03T05:29:18.202Z,63.45
2022-09-03T05:30:19.936Z,63.88
2022-09-03T05:31:21.708Z,63.88
2022-09-03T05:32:23.415Z,65.12
2022-09-03T05:33:25.149Z,65.2
2022-09-03T05:34:26.886Z,66.1
2022-09-03T05:35:30.241Z,66.06
2022-09-03T05:36:30.345Z,65.82
2022-09-03T05:37:32.095Z,67.49
2022-09-03T05:38:33.815Z,66.15
2022-09-03T05:39:35.642Z,66.74
2022-09-03T05:40:37.281Z,68.83
2022-09-03T05:41:39.009Z,68.2
2022-09-03T05:42:40.740Z,69.65
2022-09-03T05:43:42.499Z,68.93
2022-09-03T05:44:44.230Z,68.46
2022-09-03T05:45:46.118Z,69.14
2022-09-03T05:46:47.702Z,68.9
2022-09-03T05:47:49.501Z,70.05
2022-09-03T05:48:51.170Z,70.37
2022-09-03T05:49:52.898Z,71.51
2022-09-03T05:50:54.828Z,70.98
2022-09-03T05:51:56.553Z,72.88
2022-09-03T05:52:58.105Z,71.83
2022-09-03T05:53:59.899Z,71.97
2022-09-03T05:55:01.580Z,72.1
2022-09-03T05:56:08.629Z,72.74
2022-09-03T05:57:05.049Z,72.72
2022-09-03T05:58:06.776Z,73.23
2022-09-03T05:59:08.509Z,73.21
2022-09-03T06:00:10.241Z,73.48
2022-09-03T06:01:11.992Z,73.41
2022-09-03T06:02:13.852Z,74.33
2022-09-03T06:03:15.647Z,74.96
2022-09-03T06:04:17.204Z,75.49
2022-09-03T06:05:18.928Z,75.2
2022-09-03T06:06:20.675Z,75.44
2022-09-03T06:07:22.411Z,75.67
2022-09-03T06:08:24.185Z,76.63
2022-09-03T06:09:25.865Z,76.64
2022-09-03T06:10:30.824Z,77.11
2022-09-03T06:11:29.340Z,78.12
2022-09-03T06:12:31.081Z,79.86
2022-09-03T06:13:32.810Z,80.56
2022-09-03T06:14:34.537Z,80.47
2022-09-03T06:15:36.291Z,80.97
2022-09-03T06:16:38.095Z,81.56
2022-09-03T06:17:39.745Z,82.01
2022-09-03T06:18:41.489Z,82.46
2022-09-03T06:19:43.222Z,84.11
2022-09-03T06:20:44.941Z,84.18
2022-09-03T06:21:46.692Z,85.63
2022-09-03T06:22:48.418Z,86.78
2022-09-03T06:23:50.160Z,87.99
2022-09-03T06:24:51.891Z,86.22
2022-09-03T06:25:53.630Z,86.17
2022-09-03T06:26:55.355Z,86.29
2022-09-03T06:27:57.102Z,86.14
2022-09-03T06:28:58.873Z,86.71
2022-09-03T06:30:00.563Z,86.73
2022-09-03T06:31:02.290Z,87.9
2022-09-03T06:32:04.138Z,87.56
2022-09-03T06:33:05.772Z,89.42
2022-09-03T06:34:07.507Z,89.59
2022-09-03T06:35:09.295Z,89.16
2022-09-03T06:36:10.984Z,89.57
2022-09-03T06:37:12.718Z,90.38
2022-09-03T06:38:14.472Z,90.42
2022-09-03T06:39:16.925Z,90.8
2022-09-03T06:40:17.902Z,92.2
2022-09-03T06:41:19.662Z,92.22
2022-09-03T06:42:21.379Z,95.2
2022-09-03T06:43:23.122Z,95.93
2022-09-03T06:44:24.847Z,98.08
2022-09-03T06:45:26.634Z,95.53
2022-09-03T06:46:28.320Z,96.83
2022-09-03T06:47:30.050Z,98.39
2022-09-03T06:48:31.813Z,98.83
2022-09-03T06:49:33.524Z,97.49
2022-09-03T06:50:35.277Z,98.79
2022-09-03T06:51:36.999Z,97.99
2022-09-03T06:52:38.726Z,100
2022-09-03T06:53:40.459Z,100
2022-09-03T06:54:42.238Z,100
2022-09-03T06:55:43.981Z,100
2022-09-03T06:56:45.664Z,100
2022-09-03T06:57:47.402Z,100
2022-09-03T06:58:49.129Z,99.81
2022-09-03T06:59:50.867Z,100
2022-09-03T07:00:52.768Z,100
2022-09-03T07:01:54.595Z,100
2022-09-03T07:02:56.086Z,100
2022-09-03T07:03:57.807Z,100
2022-09-03T07:04:59.543Z,100
2022-09-03T07:06:01.272Z,100
2022-09-03T07:07:03.016Z,100
2022-09-03T07:08:04.744Z,100
2022-09-03T07:09:06.471Z,100
2022-09-03T07:10:08.228Z,100
2022-09-03T07:11:09.967Z,100
2022-09-03T07:12:11.687Z,100
2022-09-03T07:13:13.423Z,100
2022-09-03T07:14:15.199Z,100
2022-09-03T07:15:16.897Z,100
2022-09-03T07:16:18.767Z,100
2022-09-03T07:17:20.380Z,100
2022-09-03T07:18:22.134Z,100
2022-09-03T07:19:23.831Z,100
2022-09-03T07:20:25.563Z,100
2022-09-03T07:21:27.310Z,100
2022-09-03T07:22:31.777Z,100
2022-09-03T07:23:30.762Z,100
2022-09-03T07:24:32.526Z,100
2022-09-03T07:25:34.246Z,100
2022-09-03T07:26:35.989Z,100
2022-09-03T07:27:37.719Z,100
2022-09-03T07:28:39.442Z,100
2022-09-03T07:29:41.176Z,100
2022-09-03T07:30:42.908Z,100
2022-09-03T07:31:44.689Z,100
2022-09-03T07:32:46.379Z,100
2022-09-03T07:33:48.111Z,100
2022-09-03T07:34:49.849Z,100
2022-09-03T07:35:51.704Z,100
2022-09-03T07:36:53.312Z,100
2022-09-03T07:37:55.070Z,100
2022-09-03T07:38:56.782Z,100
2022-09-03T07:39:58.615Z,100
2022-09-03T07:41:00.276Z,100
2022-09-03T07:42:01.992Z,100
2022-09-03T07:43:03.721Z,100
2022-09-03T07:44:05.463Z,100
2022-09-03T07:45:07.258Z,100
2022-09-03T07:46:08.958Z,100
2022-09-03T07:47:10.658Z,100
2022-09-03T07:48:12.402Z,100
2022-09-03T07:49:14.141Z,100
2022-09-03T07:50:15.869Z,100
2022-09-03T07:51:17.628Z,100
2022-09-03T07:52:19.345Z,100
2022-09-03T07:53:21.077Z,100
2022-09-03T07:54:22.823Z,100
2022-09-03T07:55:24.545Z,100
2022-09-03T07:56:26.285Z,100
2022-09-03T07:57:28.004Z,100
2022-09-03T07:58:29.739Z,100
2022-09-03T07:59:31.494Z,100
2022-09-03T08:00:33.299Z,100
2022-09-03T08:01:34.979Z,100
2022-09-03T08:02:36.712Z,100
2022-09-03T08:03:38.518Z,100
2022-09-03T08:04:40.188Z,100
2022-09-03T08:05:41.899Z,100
2022-09-03T08:06:43.634Z,100
2022-09-03T08:07:45.382Z,100
2022-09-03T08:08:47.102Z,100
2022-09-03T08:09:48.845Z,100
2022-09-03T08:10:50.571Z,100
2022-09-03T08:11:52.299Z,100
2022-09-03T08:12:54.029Z,100
2022-09-03T08:13:55.778Z,100
2022-09-03T08:14:57.511Z,100
2022-09-03T08:15:59.294Z,100
2022-09-03T08:17:00.982Z,100
2022-09-03T08:18:03.448Z,100
2022-09-03T08:19:04.432Z,100
2022-09-03T08:20:06.254Z,100
2022-09-03T08:21:07.937Z,100
2022-09-03T08:22:09.651Z,100
2022-09-03T08:23:11.378Z,100
2022-09-03T08:24:13.110Z,100
2022-09-03T08:25:14.854Z,100
2022-09-03T08:26:16.580Z,100
2022-09-03T08:27:18.311Z,100
2022-09-03T08:28:20.126Z,100
2022-09-03T08:29:21.785Z,100
2022-09-03T08:30:23.521Z,100
2022-09-03T08:31:25.280Z,100
2022-09-03T08:32:27.026Z,100
2022-09-03T08:33:28.715Z,100
2022-09-03T08:34:30.452Z,100
2022-09-03T08:35:32.192Z,100
2022-09-03T08:36:33.926Z,100
2022-09-03T08:37:35.734Z,100
2022-09-03T08:38:37.379Z,100
2022-09-03T08:39:39.177Z,100
2022-09-03T08:40:40.855Z,100
2022-09-03T08:41:42.607Z,100
2022-09-03T08:42:44.324Z,100
2022-09-03T08:43:46.059Z,100
2022-09-03T08:44:47.792Z,100
2022-09-03T08:45:49.535Z,100
2022-09-03T08:46:51.349Z,100
2022-09-03T08:47:53.010Z,100
2022-09-03T08:48:54.718Z,100
2022-09-03T08:49:56.461Z,100
2022-09-03T08:50:58.218Z,100
2022-09-03T08:51:59.930Z,100
2022-09-03T08:53:01.667Z,100
2022-09-03T08:54:03.407Z,100
2022-09-03T08:55:05.150Z,100
2022-09-03T08:56:06.885Z,100
2022-09-03T08:57:08.601Z,100
2022-09-03T08:58:10.366Z,100
2022-09-03T08:59:12.101Z,100
2022-09-03T09:00:13.805Z,100
2022-09-03T09:01:15.613Z,100
2022-09-03T09:02:17.667Z,100
2022-09-03T09:03:19.049Z,100
2022-09-03T09:04:20.790Z,100
2022-09-03T09:05:22.539Z,100
2022-09-03T09:06:24.241Z,100
2022-09-03T09:07:25.978Z,100
2022-09-03T09:08:27.688Z,100
2022-09-03T09:09:29.411Z,100
2022-09-03T09:10:31.162Z,100
2022-09-03T09:11:32.941Z,100
2022-09-03T09:12:42.759Z,100
2022-09-03T09:13:36.360Z,100
2022-09-03T09:14:39.389Z,100
2022-09-03T09:15:39.870Z,100
2022-09-03T09:16:41.567Z,100
2022-09-03T09:17:43.312Z,100
2022-09-03T09:18:45.042Z,100
2022-09-03T09:19:46.772Z,100
2022-09-03T09:20:48.522Z,100
2022-09-03T09:21:50.259Z,100
2022-09-03T09:22:51.979Z,100
2022-09-03T09:23:53.722Z,100
2022-09-03T09:24:55.455Z,100
2022-09-03T09:25:58.187Z,100
2022-09-03T09:26:58.921Z,100
2022-09-03T09:28:00.642Z,100
2022-09-03T09:29:02.370Z,100
2022-09-03T09:30:04.126Z,100
2022-09-03T09:31:10.926Z,100
2022-09-03T09:32:07.582Z,100
2022-09-03T09:33:09.312Z,100
2022-09-03T09:34:11.059Z,100
2022-09-03T09:35:12.782Z,100
2022-09-03T09:36:15.629Z,100
2022-09-03T09:37:16.259Z,100
2022-09-03T09:38:17.989Z,100
2022-09-03T09:39:19.779Z,100
2022-09-03T09:40:21.463Z,100
2022-09-03T09:41:26.273Z,100
2022-09-03T09:42:24.927Z,100
2022-09-03T09:43:26.658Z,100
2022-09-03T09:44:28.403Z,100
2022-09-03T09:45:30.131Z,100
2022-09-03T09:46:31.905Z,100
2022-09-03T09:47:34.821Z,100
2022-09-03T09:48:35.341Z,100
2022-09-03T09:49:37.083Z,100
2022-09-03T09:50:38.818Z,100
2022-09-03T09:51:40.562Z,100
2022-09-03T09:52:42.284Z,100
2022-09-03T09:53:44.082Z,100
2022-09-03T09:54:46.903Z,100
2022-09-03T09:55:47.482Z,100
2022-09-03T09:56:49.224Z,100
2022-09-03T09:57:50.161Z,100
2022-09-03T09:58:52.703Z,100
2022-09-03T09:59:54.427Z,100
2022-09-03T10:00:56.196Z,100
2022-09-03T10:01:57.948Z,100
2022-09-03T10:02:59.692Z,100
2022-09-03T10:04:01.379Z,100
2022-09-03T10:05:03.162Z,100
2022-09-03T10:06:14.837Z,100
2022-09-03T10:07:06.577Z,100
2022-09-03T10:08:08.288Z,100
2022-09-03T10:09:10.020Z,100
2022-09-03T10:10:11.786Z,100
2022-09-03T10:11:13.504Z,100
2022-09-03T10:12:15.223Z,100
2022-09-03T10:13:16.960Z,100
2022-09-03T10:14:18.708Z,100
2022-09-03T10:15:21.471Z,100
2022-09-03T10:16:22.262Z,100
2022-09-03T10:17:26.571Z,100
2022-09-03T10:18:26.111Z,100
2022-09-03T10:19:27.354Z,100
2022-09-03T10:20:29.099Z,100
2022-09-03T10:21:30.827Z,100
2022-09-03T10:22:32.553Z,100
2022-09-03T10:23:34.341Z,100
2022-09-03T10:24:36.091Z,100
2022-09-03T10:25:37.816Z,100
2022-09-03T10:26:39.568Z,100
2022-09-03T10:27:41.292Z,100
2022-09-03T10:28:43.027Z,100
2022-09-03T10:29:44.753Z,100
2022-09-03T10:30:46.602Z,100
2022-09-03T10:31:48.237Z,100
2022-09-03T10:32:49.956Z,100
2022-09-03T10:33:51.701Z,100
2022-09-03T10:34:53.440Z,100
2022-09-03T10:35:55.169Z,100
2022-09-03T10:36:56.891Z,100
2022-09-03T10:37:58.631Z,100
2022-09-03T10:39:00.363Z,100
2022-09-03T10:40:02.166Z,100
2022-09-03T10:41:08.852Z,100
2022-09-03T10:42:05.574Z,100
2022-09-03T10:43:07.297Z,100
2022-09-03T10:44:09.038Z,100
2022-09-03T10:45:10.789Z,100
2022-09-03T10:46:12.577Z,100
2022-09-03T10:47:14.242Z,100
2022-09-03T10:48:16.044Z,100
2022-09-03T10:49:17.708Z,100
2022-09-03T10:50:19.447Z,100
2022-09-03T10:52:14.864Z,100
2022-09-03T10:53:16.634Z,100
2022-09-03T10:54:18.356Z,100
2022-09-03T10:55:20.090Z,100
2022-09-03T10:56:21.821Z,100
2022-09-03T10:57:23.626Z,100
2022-09-03T10:58:25.404Z,100
2022-09-03T10:59:29.163Z,100
2022-09-03T11:00:28.829Z,100
2022-09-03T11:01:30.603Z,100
2022-09-03T11:02:32.430Z,100
2022-09-03T11:03:34.102Z,100
2022-09-03T11:04:36.343Z,100
2022-09-03T11:05:37.439Z,100
2022-09-03T11:06:39.189Z,100
2022-09-03T11:07:40.908Z,100
2022-09-03T11:08:42.657Z,100
2022-09-03T11:09:44.378Z,100
2022-09-03T11:10:46.110Z,100
2022-09-03T11:11:47.880Z,100
2022-09-03T11:12:49.588Z,100
2022-09-03T11:13:51.309Z,100
2022-09-03T11:14:53.036Z,100
2022-09-03T11:15:54.952Z,100
2022-09-03T11:16:56.553Z,100
2022-09-03T11:17:58.252Z,100
2022-09-03T11:18:59.988Z,100
2022-09-03T11:20:01.725Z,100
2022-09-03T11:21:12.090Z,100
2022-09-03T11:22:05.222Z,100
2022-09-03T11:23:06.944Z,100
2022-09-03T11:24:08.666Z,100
2022-09-03T11:25:10.390Z,100
2022-09-03T11:26:12.126Z,100
2022-09-03T11:27:13.887Z,100
2022-09-03T11:28:15.637Z,100
2022-09-03T11:29:18.298Z,100
2022-09-03T11:30:19.084Z,100
2022-09-03T11:31:20.890Z,100
2022-09-03T11:32:22.535Z,100
2022-09-03T11:33:24.268Z,100
2022-09-03T11:34:31.957Z,100
2022-09-03T11:35:27.743Z,100
2022-09-03T11:36:29.490Z,100
2022-09-03T11:37:31.206Z,100
2022-09-03T11:38:32.930Z,100
2022-09-03T11:39:34.793Z,100
2022-09-03T11:40:36.392Z,100
2022-09-03T11:41:38.135Z,100
2022-09-03T11:42:39.882Z,100
2022-09-03T11:43:41.610Z,100
2022-09-03T11:44:51.200Z,100
2022-09-03T11:45:45.145Z,100
2022-09-03T11:46:46.826Z,100
2022-09-03T11:47:48.538Z,100
2022-09-03T11:48:50.316Z,100
2022-09-03T11:49:52.029Z,100
2022-09-03T11:50:53.756Z,100
2022-09-03T11:51:55.472Z,100
2022-09-03T11:52:58.658Z,100
2022-09-03T11:53:58.949Z,100
2022-09-03T11:55:00.694Z,100
2022-09-03T11:56:02.425Z,100
2022-09-03T11:57:04.141Z,100
2022-09-03T11:58:05.899Z,100
2022-09-03T11:59:07.602Z,100
2022-09-03T12:00:09.366Z,100
2022-09-03T12:01:11.087Z,100
2022-09-03T12:02:12.877Z,100
2022-09-03T12:03:14.569Z,100
2022-09-03T12:04:16.372Z,100
2022-09-03T12:05:18.015Z,100
2022-09-03T12:06:19.883Z,100
2022-09-03T12:07:21.485Z,100
2022-09-03T12:08:23.214Z,100
2022-09-03T12:09:24.953Z,100
2022-09-03T12:10:26.760Z,100
2022-09-03T12:11:28.415Z,100
2022-09-03T12:12:30.153Z,100
2022-09-03T12:13:31.943Z,100
2022-09-03T12:14:33.622Z,100
2022-09-03T12:15:35.406Z,100
2022-09-03T12:16:37.105Z,100
2022-09-03T12:17:38.829Z,100
2022-09-03T12:18:40.557Z,100
2022-09-03T12:19:42.296Z,100
2022-09-03T12:20:44.033Z,100
2022-09-03T12:21:45.768Z,100
2022-09-03T12:22:47.539Z,100
2022-09-03T12:23:49.239Z,100
2022-09-03T12:24:50.963Z,100
2022-09-03T12:25:52.715Z,100
2022-09-03T12:26:54.465Z,100
2022-09-03T12:27:56.179Z,100
2022-09-03T12:28:57.924Z,100
2022-09-03T12:29:59.724Z,100
2022-09-03T12:31:01.473Z,100
2022-09-03T12:32:03.111Z,100
2022-09-03T12:33:05.004Z,100
2022-09-03T12:34:06.610Z,100
2022-09-03T12:35:08.322Z,100
2022-09-03T12:36:15.078Z,100
2022-09-03T12:37:11.801Z,100
2022-09-03T12:38:18.263Z,100
2022-09-03T12:39:15.327Z,100
2022-09-03T12:40:17.041Z,100
2022-09-03T12:41:23.051Z,100
2022-09-03T12:42:20.486Z,100
2022-09-03T12:43:38.648Z,100
2022-09-03T12:44:23.938Z,100
2022-09-03T12:45:25.847Z,100
2022-09-03T12:46:33.864Z,98.09
2022-09-03T12:47:37.727Z,97.75
2022-09-03T12:48:32.965Z,97.75
2022-09-03T12:49:32.613Z,97.77
2022-09-03T12:50:34.343Z,97.73
2022-09-03T12:51:54.616Z,97.7
2022-09-03T12:52:37.818Z,99.09
2022-09-03T12:53:39.546Z,100
2022-09-03T12:54:41.283Z,100
2022-09-03T12:55:43.010Z,100
2022-09-03T12:56:44.752Z,100
2022-09-03T12:57:46.482Z,100
2022-09-03T12:58:48.214Z,100
2022-09-03T12:59:49.968Z,98.52
2022-09-03T13:00:51.735Z,99.37
2022-09-03T13:01:53.534Z,99.8
2022-09-03T13:02:55.165Z,100
2022-09-03T13:03:56.930Z,99.64
2022-09-03T13:04:58.649Z,100
2022-09-03T13:06:00.365Z,100
2022-09-03T13:07:02.095Z,100
2022-09-03T13:08:03.828Z,94.25
2022-09-03T13:09:05.772Z,94.95
2022-09-03T13:10:07.291Z,96.06
2022-09-03T13:11:12.057Z,95.64
2022-09-03T13:12:10.755Z,94.67
2022-09-03T13:13:12.500Z,96.32
2022-09-03T13:14:14.227Z,95.87
2022-09-03T13:15:15.971Z,95.66
2022-09-03T13:16:17.732Z,91.7
2022-09-03T13:17:19.431Z,92.94
2022-09-03T13:18:21.254Z,92.97
2022-09-03T13:19:22.906Z,87.96
2022-09-03T13:20:24.672Z,89.17
2022-09-03T13:21:26.212Z,87.19
2022-09-03T13:22:27.937Z,86.62
2022-09-03T13:23:29.671Z,88.29
2022-09-03T13:24:31.415Z,87.37
2022-09-03T13:25:33.146Z,87.53
2022-09-03T13:26:34.881Z,89.08
2022-09-03T13:27:36.618Z,87.03
2022-09-03T13:28:38.360Z,86.47
2022-09-03T13:29:40.079Z,86.98
2022-09-03T13:30:41.898Z,85.37
2022-09-03T13:31:43.553Z,87.16
2022-09-03T13:32:45.286Z,88.09
2022-09-03T13:33:47.032Z,89.71
2022-09-03T13:34:48.755Z,87.92
2022-09-03T13:35:50.514Z,89.47
2022-09-03T13:36:52.221Z,88.55
2022-09-03T13:37:53.958Z,87.72
2022-09-03T13:38:56.751Z,89.19
2022-09-03T13:39:57.510Z,89.46
2022-09-03T13:40:59.160Z,89.22